Latest Weather Observations for Canterbury

IDN60901

Issued at 10:31 pm EDT Tuesday 31 March 2015 (issued every 10 minutes, with the page automatically refreshed every 10 minutes)

About weather observations | Map of Sydney area stations | Latest observations for Sydney area | Other Formats
Station Details ID: 066194 Name: CANTERBURY RACECOURSE AWS Lat: -33.91 Lon: 151.11 Height: 3.0 m
Data from the previous 72 hours. | See also: Recent months at Canterbury
Date/Time
EDT
Tmp

°C
App
Tmp
°C
Dew
Point
°C
Rel
Hum
%
Delta-T

°C
Wind Press
QNH
hPa
Press
MSL
hPa
Rain
since
9 am
mm
Dir
 
Spd
km/h
Gust
km/h
Spd
kts
Gust
kts
31/10:30pm 14.9 16.0 13.6 92 0.7 CALM 0 0 0 0 - - 13.2
31/10:00pm 15.2 16.4 13.7 91 0.8 CALM 0 0 0 0 - - 13.2
31/09:30pm 15.6 17.0 14.3 92 0.7 CALM 0 0 0 0 - - 13.2
31/09:00pm 15.9 17.2 14.1 89 1.0 CALM 0 0 0 0 - - 13.2
31/08:43pm 16.3 17.7 14.5 89 1.0 CALM 0 0 0 0 - - 13.2
31/08:30pm 16.4 17.9 14.6 89 1.0 CALM 0 0 0 0 - - 13.2
31/08:21pm 16.6 18.1 14.6 88 1.1 CALM 0 0 0 0 - - 13.2
31/08:00pm 16.5 16.9 13.8 84 1.5 ESE 4 6 2 3 - - 13.2
31/07:30pm 17.7 18.0 14.4 81 1.9 SE 6 7 3 4 - - 13.2
31/07:00pm 18.6 18.3 14.5 77 2.4 SE 9 11 5 6 - - 13.2
31/06:30pm 19.5 18.7 14.1 71 3.1 ESE 11 15 6 8 - - 13.2
31/06:00pm 20.5 18.8 13.5 64 4.0 ESE 15 20 8 11 - - 13.2
31/05:30pm 21.1 18.9 13.3 61 4.5 ESE 17 22 9 12 - - 13.2
31/05:00pm 21.1 19.1 12.8 59 4.7 ESE 15 20 8 11 - - 13.2
31/04:30pm 21.1 19.6 14.3 65 4.0 SSE 15 20 8 11 - - 13.2
31/04:00pm 20.6 20.7 16.4 77 2.5 SSE 11 15 6 8 - - 13.2
31/03:30pm 20.0 20.8 17.2 84 1.7 SSE 9 15 5 8 - - 13.2
31/03:00pm 20.2 20.3 15.6 75 2.7 S 9 13 5 7 - - 13.2
31/02:30pm 20.3 20.7 15.3 73 3.0 WNW 7 13 4 7 - - 13.2
31/02:00pm 20.5 21.3 16.3 77 2.5 NW 7 11 4 6 - - 13.2
31/01:30pm 19.5 21.4 16.7 84 1.7 NNW 2 6 1 3 - - 13.2
31/01:00pm 18.7 19.8 16.5 87 1.3 NW 6 7 3 4 - - 13.2
31/12:30pm 18.1 19.3 17.3 95 0.5 SSE 7 9 4 5 - - 13.2
31/12:18pm 17.9 18.2 17.1 95 0.5 SSE 11 13 6 7 - - 13.2
31/12:00pm 17.6 17.4 16.6 94 0.6 SE 13 17 7 9 - - 12.8
31/11:40am 18.2 18.3 16.5 90 1.0 S 11 20 6 11 - - 2.8
31/11:30am 18.1 17.4 16.3 89 1.1 WSW 15 20 8 11 - - 2.0
31/11:27am 18.1 17.2 15.9 87 1.3 W 15 20 8 11 - - 2.0
31/11:12am 19.1 19.0 16.1 83 1.8 SSW 11 19 6 10 - - 1.8
31/11:00am 19.3 17.7 16.0 81 2.0 SSE 19 28 10 15 - - 0.0
31/10:30am 19.8 19.8 16.3 80 2.1 S 11 15 6 8 - - 0.0
31/10:00am 20.0 19.6 16.2 79 2.3 SE 13 19 7 10 - - 0.0
31/09:30am 19.6 19.2 16.3 81 2.0 SSE 13 19 7 10 - - 0.0
31/09:00am 18.9 20.8 16.7 87 1.3 NW 2 6 1 3 - - 0.8
31/08:30am 18.3 19.5 16.8 91 0.9 NW 6 7 3 4 - - 0.8
31/08:00am 16.6 18.4 15.5 93 0.6 CALM 0 0 0 0 - - 0.8
31/07:30am 16.3 17.9 15.0 92 0.8 CALM 0 0 0 0 - - 0.8
31/07:00am 16.2 17.8 14.9 92 0.7 CALM 0 0 0 0 - - 0.8
31/06:30am 16.3 17.9 14.8 91 0.9 CALM 0 0 0 0 - - 0.8
31/06:00am 16.3 17.8 14.7 90 0.9 CALM 0 0 0 0 - - 0.8
31/05:30am 16.4 17.9 14.6 89 1.0 CALM 0 0 0 0 - - 0.8
31/05:00am 16.5 17.9 14.3 87 1.3 CALM 0 0 0 0 - - 0.8
31/04:30am 16.9 18.4 14.7 87 1.3 CALM 0 4 0 2 - - 0.8
31/04:00am 17.1 16.3 15.1 88 1.2 WSW 13 17 7 9 - - 0.8
31/03:30am 16.8 18.2 15.5 92 0.8 NNW 2 7 1 4 - - 0.8
31/03:00am 16.3 17.7 14.3 88 1.1 CALM 0 0 0 0 - - 0.8
31/02:30am 16.7 18.2 14.7 88 1.1 CALM 0 0 0 0 - - 0.8
31/02:00am 17.0 18.5 14.6 86 1.4 CALM 0 0 0 0 - - 0.8
31/01:30am 17.5 18.7 14.8 84 1.6 NE 2 6 1 3 - - 0.8
31/01:00am 17.6 19.2 15.0 85 1.5 CALM 0 0 0 0 - - 0.8
31/12:30am 17.7 19.3 14.8 83 1.7 CALM 0 0 0 0 - - 0.8
31/12:00am 18.1 18.6 15.5 85 1.5 ESE 7 11 4 6 - - 0.8
 
Date/Time
EDT
Tmp

°C
App
Tmp
°C
Dew
Point
°C
Rel
Hum
%
Delta-T

°C
Wind Press
QNH
hPa
Press
MSL
hPa
Rain
since
9 am
mm
Dir
 
Spd
km/h
Gust
km/h
Spd
kts
Gust
kts
30/11:30pm 18.5 19.2 16.1 86 1.4 ENE 7 9 4 5 - - 0.6
30/11:00pm 17.9 19.0 15.7 87 1.3 SSE 4 7 2 4 - - 0.6
30/10:30pm 18.1 18.7 15.4 84 1.6 SE 6 7 3 4 - - 0.6
30/10:00pm 18.0 19.5 14.7 81 1.9 CALM 0 0 0 0 - - 0.6
30/09:30pm 18.2 19.4 14.9 81 1.9 ESE 2 6 1 3 - - 0.6
30/09:00pm 18.7 20.2 14.6 77 2.4 CALM 0 6 0 3 - - 0.6
30/08:30pm 18.9 19.2 15.0 78 2.3 E 7 9 4 5 - - 0.6
30/08:00pm 18.9 20.4 14.6 76 2.5 CALM 0 6 0 3 - - 0.6
30/07:30pm 19.6 19.8 14.6 73 2.9 ENE 7 9 4 5 - - 0.6
30/07:00pm 19.7 20.0 14.5 72 3.0 NE 6 9 3 5 - - 0.6
30/06:30pm 20.2 19.8 14.1 68 3.5 ENE 9 11 5 6 - - 0.6
30/06:00pm 20.5 18.7 12.2 59 4.6 E 13 19 7 10 - - 0.6
30/05:30pm 20.8 20.1 13.3 62 4.3 ENE 9 15 5 8 - - 0.6
30/05:00pm 21.6 20.7 13.8 61 4.5 ENE 11 15 6 8 - - 0.6
30/04:30pm 21.9 19.3 13.3 58 4.9 E 19 28 10 15 - - 0.6
30/04:00pm 21.6 19.7 14.3 63 4.3 E 17 22 9 12 - - 0.6
30/03:30pm 22.1 20.3 14.5 62 4.5 ENE 17 28 9 15 - - 0.6
30/03:00pm 23.6 21.5 12.3 49 6.4 ENE 15 22 8 12 - - 0.6
30/02:30pm 23.5 22.7 12.8 51 6.1 E 9 17 5 9 - - 0.6
30/02:00pm 22.0 21.1 12.5 54 5.4 E 9 15 5 8 - - 0.6
30/01:30pm 20.8 20.6 14.7 68 3.6 SE 9 11 5 6 - - 0.6
30/01:00pm 19.6 19.5 15.0 75 2.7 E 9 13 5 7 - - 0.6
30/12:30pm 18.8 19.6 13.6 72 3.0 ENE 2 7 1 4 - - 0.6
30/12:00pm 17.6 17.2 14.1 80 2.0 NNE 9 13 5 7 - - 0.6
30/11:30am 16.5 15.8 13.2 81 1.8 SE 9 17 5 9 - - 0.6
30/11:00am 16.1 12.7 13.8 86 1.3 SE 24 32 13 17 - - 0.6
30/10:30am 16.4 13.8 13.3 82 1.7 SE 19 22 10 12 - - 0.4
30/10:00am 18.3 17.2 14.4 78 2.2 N 13 24 7 13 - - 0.0
30/09:30am 18.1 19.7 14.8 81 1.9 CALM 0 0 0 0 - - 0.0
30/09:00am 17.5 17.9 14.8 84 1.6 SW 6 9 3 5 - - 0.0
30/08:30am 16.8 17.0 14.1 84 1.5 W 6 11 3 6 - - 0.0
30/08:00am 16.3 16.3 14.1 87 1.2 WNW 7 11 4 6 - - 0.0
30/07:30am 16.0 16.1 14.0 88 1.1 NNW 6 7 3 4 - - 0.0
30/07:00am 15.9 17.1 13.9 88 1.1 CALM 0 6 0 3 - - 0.0
30/06:30am 15.8 17.0 13.8 88 1.1 CALM 0 0 0 0 - - 0.0
30/06:00am 15.8 17.1 14.2 90 0.9 CALM 0 0 0 0 - - 0.0
30/05:30am 15.8 17.1 14.0 89 1.0 CALM 0 0 0 0 - - 0.0
30/05:00am 15.9 16.1 14.3 90 0.9 NW 6 7 3 4 - - 0.0
30/04:30am 15.8 17.2 14.3 91 0.9 CALM 0 0 0 0 - - 0.0
30/04:00am 15.8 17.2 14.3 91 0.9 CALM 0 0 0 0 - - 0.0
30/03:30am 15.5 16.8 14.2 92 0.7 CALM 0 0 0 0 - - 0.0
30/03:00am 15.5 16.8 14.2 92 0.7 CALM 0 0 0 0 - - 0.0
30/02:30am 15.6 16.9 14.1 91 0.8 CALM 0 0 0 0 - - 0.0
30/02:00am 15.5 16.7 13.9 90 0.9 CALM 0 0 0 0 - - 0.0
30/01:30am 16.1 17.6 14.6 91 0.9 CALM 0 0 0 0 - - 0.0
30/01:00am 15.6 16.9 14.0 90 0.9 CALM 0 0 0 0 - - 0.0
30/12:30am 15.6 16.8 13.8 89 1.0 CALM 0 0 0 0 - - 0.0
30/12:00am 16.0 17.3 14.2 89 1.0 CALM 0 0 0 0 - - 0.0
 
Date/Time
EDT
Tmp

°C
App
Tmp
°C
Dew
Point
°C
Rel
Hum
%
Delta-T

°C
Wind Press
QNH
hPa
Press
MSL
hPa
Rain
since
9 am
mm
Dir
 
Spd
km/h
Gust
km/h
Spd
kts
Gust
kts
29/11:30pm 16.5 17.9 14.3 87 1.3 CALM 0 0 0 0 - - 0.0
29/11:00pm 16.6 17.8 13.7 83 1.6 CALM 0 0 0 0 - - 0.0
29/10:30pm 17.2 18.5 14.1 82 1.8 CALM 0 0 0 0 - - 0.0
29/10:00pm 18.1 18.6 14.0 77 2.3 NW 4 6 2 3 - - 0.0
29/09:30pm 18.8 19.7 13.9 73 2.8 NNE 2 6 1 3 - - 0.0
29/09:00pm 19.5 19.1 14.1 71 3.1 NNE 9 17 5 9 - - 0.0
29/08:30pm 19.5 19.0 13.9 70 3.2 NE 9 13 5 7 - - 0.0
29/08:00pm 19.5 19.0 13.7 69 3.3 NE 9 17 5 9 - - 0.0
29/07:30pm 19.6 18.7 13.8 69 3.3 NE 11 17 6 9 - - 0.0
29/07:00pm 20.0 18.4 13.9 68 3.5 NNE 15 22 8 12 - - 0.0
29/06:30pm 20.4 19.2 14.1 67 3.6 NE 13 20 7 11 - - 0.0
29/06:00pm 20.5 19.3 13.9 66 3.8 NE 13 22 7 12 - - 0.0
29/05:30pm 20.8 19.5 13.7 64 4.1 NE 13 26 7 14 - - 0.0
29/05:00pm 21.1 19.1 14.0 64 4.1 ENE 17 26 9 14 - - 0.0
29/04:30pm 21.5 19.1 13.9 62 4.4 ENE 19 24 10 13 - - 0.0
29/04:00pm 21.9 19.9 13.8 60 4.7 ENE 17 26 9 14 - - 0.0
29/03:30pm 23.1 20.6 14.1 57 5.3 ENE 20 28 11 15 - - 0.0
29/03:00pm 22.9 20.6 14.2 58 5.1 ENE 19 26 10 14 - - 0.0
29/02:30pm 24.0 23.6 12.9 50 6.4 NE 7 19 4 10 - - 0.0
29/02:00pm 23.7 21.9 12.0 48 6.6 NNE 13 24 7 13 - - 0.0
29/01:30pm 23.2 21.2 11.6 48 6.5 NE 13 20 7 11 - - 0.0
29/01:00pm 22.6 20.7 11.7 50 6.1 NNE 13 20 7 11 - - 0.0
29/12:30pm 22.4 21.4 12.4 53 5.7 NNE 9 19 5 10 - - 0.0
29/12:00pm 21.6 20.1 11.9 54 5.4 N 11 19 6 10 - - 0.0
29/11:30am 21.0 20.0 12.2 57 4.9 NW 9 13 5 7 - - 0.0
29/11:00am 20.2 19.6 12.2 60 4.5 WNW 7 11 4 6 - - 0.0
29/10:30am 18.0 17.2 11.6 66 3.5 W 7 11 4 6 - - 0.0
29/10:00am 17.0 16.0 11.1 68 3.2 NW 7 11 4 6 - - 0.0
29/09:30am 15.9 15.0 10.7 71 2.8 NW 6 9 3 5 - - 0.0
29/09:00am 14.9 14.2 11.3 79 1.9 NW 6 7 3 4 - - 0.0
29/08:30am 13.4 13.8 11.3 87 1.1 CALM 0 0 0 0 - - 0.0
29/07:00am 11.5 11.2 10.2 92 0.7 NNW 2 6 1 3 - - 0.0
29/06:30am 10.7 10.6 9.3 91 0.7 CALM 0 0 0 0 - - 0.0
29/06:00am 10.8 10.7 9.4 91 0.7 CALM 0 0 0 0 - - 0.0
29/05:30am 11.0 10.9 9.6 91 0.7 CALM 0 0 0 0 - - 0.0
29/05:00am 11.1 11.1 9.9 92 0.6 CALM 0 6 0 3 - - 0.0
29/04:30am 11.0 10.9 9.4 90 0.8 CALM 0 4 0 2 - - 0.0
29/04:00am 11.6 10.6 10.2 91 0.7 NNW 6 7 3 4 - - 0.0
29/03:30am 11.5 11.5 9.9 90 0.8 CALM 0 0 0 0 - - 0.0
29/03:00am 11.3 11.3 9.9 91 0.7 CALM 0 0 0 0 - - 0.0
29/02:30am 11.3 11.2 9.6 89 0.9 CALM 0 0 0 0 - - 0.0
29/02:00am 11.6 11.6 9.9 89 0.9 CALM 0 0 0 0 - - 0.0
29/01:30am 11.9 12.0 10.1 89 0.9 CALM 0 0 0 0 - - 0.0
29/01:00am 12.1 12.2 10.3 89 0.9 CALM 0 0 0 0 - - 0.0
29/12:30am 12.1 12.1 9.7 85 1.2 CALM 0 0 0 0 - - 0.0
29/12:00am 12.4 12.5 10.1 86 1.2 CALM 0 0 0 0 - - 0.0
 
Date/Time
EDT
Tmp

°C
App
Tmp
°C
Dew
Point
°C
Rel
Hum
%
Delta-T

°C
Wind Press
QNH
hPa
Press
MSL
hPa
Rain
since
9 am
mm
Dir
 
Spd
km/h
Gust
km/h
Spd
kts
Gust
kts
28/11:30pm 13.2 13.4 10.6 84 1.4 CALM 0 0 0 0 - - 0.0
28/11:00pm 13.5 13.6 10.3 81 1.7 CALM 0 0 0 0 - - 0.0

Latest Capital City Observations: Canberra | Sydney | Melbourne | Brisbane | Adelaide | Perth | Hobart | Darwin

Other Formats:

Comma delimited format used in spreadsheet applications
http://www.bom.gov.au/fwo/IDN60901/IDN60901.94766.axf

JavaScript Object Notation format (JSON) in row-major order
http://www.bom.gov.au/fwo/IDN60901/IDN60901.94766.json